Current Weather

North Central State Arpt

North Central State Arpt, Rhode Island (KSFZ)

Report from: Sunday, May 22, 2022 1:56 AM EDT
Current time: Sunday, May 22, 2022 3:05 AM EDT

Nearby weather
Weather history
Weather forecast

Temperature21.7°C (71.1°F)
Dew point17.8°C (64.0°F)
Winds 4 kts (2.1 m/s, 4.6 mph) Vrb
Winds variableWinds variable
Visibility10 mi. (16.1 km)
Clouds Sky clear
Altimeter30.03 in.Hg (1017 mB)
Relative humidity79 %
Density altitude936 ft. (285 m)
Sea-level pressure101.6 kPa (1016 mB, 30.01 in.Hg)
Max temp last 6 hours22.2°C (72.0°F)
Min temp last 6 hours20.6°C (69.1°F)
Remarks Fully automated report
System requires maintenance
Automated weather observing station with precipitation discriminator
Pressure falling more quickly
Flight conditions Visual Meteorological Conditions
Raw dataKSFZ 220556Z AUTO VRB04KT 10SM CLR 22/18 A3003 RMK AO2 SLP164 T02170178 10222 20206 58004 $
An error has occurred. This application may no longer respond until reloaded. Reload 🗙